Time;durP1;ratioP1;P1;durP2;ratioP2;P2;SDS_P1;SDS_P2;PMS_P1;PMS_P2;Temp;Humidity;BMP_temperature;BMP_pressure;BME280_temperature;BME280_humidity;BME280_pressure;Samples;Min_cycle;Max_cycle;Signal;HPM_P1;HPM_P2
2022/01/31 00:01:46;;;;;;;15.77;4.25;;;;;;;3.29;71.05;101020.63;5026218;28;20098;-24
2022/01/31 00:04:12;;;;;;;14.20;3.50;;;;;;;3.28;71.02;101010.16;5019683;28;20049;-24
2022/01/31 00:06:37;;;;;;;18.95;4.78;;;;;;;3.27;70.74;101008.41;5023230;28;20089;-24
2022/01/31 00:09:03;;;;;;;21.30;4.57;;;;;;;3.27;70.93;100997.97;5026967;28;20032;-24
2022/01/31 00:11:29;;;;;;;20.58;4.85;;;;;;;3.25;70.43;100977.06;5027872;28;20184;-24
2022/01/31 00:14:01;;;;;;;13.07;4.15;;;;;;;3.25;70.88;100973.56;5026592;28;20040;-23
2022/01/31 00:16:32;;;;;;;18.40;4.53;;;;;;;3.23;70.71;100955.28;5022525;28;20056;-23
2022/01/31 00:18:59;;;;;;;17.30;4.28;;;;;;;3.22;70.92;100943.09;5021009;28;20110;-24
2022/01/31 00:21:25;;;;;;;13.30;4.47;;;;;;;3.21;71.09;100931.78;5024553;28;20041;-24
2022/01/31 00:23:51;;;;;;;13.30;4.60;;;;;;;3.19;70.85;100912.63;5026159;28;20029;-24
2022/01/31 00:26:17;;;;;;;23.95;5.95;;;;;;;3.20;71.20;100913.47;5024006;28;20120;-24
2022/01/31 00:28:43;;;;;;;14.07;4.90;;;;;;;3.18;71.21;100900.44;5023465;28;20410;-24
2022/01/31 00:31:08;;;;;;;9.75;3.72;;;;;;;3.17;71.29;100888.22;5027143;28;20025;-24
2022/01/31 00:33:34;;;;;;;19.83;4.72;;;;;;;3.16;70.87;100885.56;5025518;28;20032;-25
2022/01/31 00:36:00;;;;;;;15.05;4.70;;;;;;;3.15;71.32;100876.00;5026772;28;20028;-24
2022/01/31 00:38:25;;;;;;;13.20;5.25;;;;;;;3.14;71.25;100867.28;5025752;28;20166;-24
2022/01/31 00:40:51;;;;;;;11.32;4.30;;;;;;;3.12;71.07;100858.56;5024643;28;20158;-24
2022/01/31 00:43:19;;;;;;;15.18;4.32;;;;;;;3.11;70.95;100850.72;5022795;28;20029;-24
2022/01/31 00:45:58;;;;;;;12.77;4.13;;;;;;;3.10;71.32;100849.81;5025640;28;20022;-24
2022/01/31 00:48:26;;;;;;;15.05;3.80;;;;;;;3.11;71.26;100861.13;5030819;28;20029;-24
2022/01/31 00:50:53;;;;;;;19.38;4.65;;;;;;;3.08;71.43;100851.53;5026717;28;20554;-24
2022/01/31 00:53:18;;;;;;;13.30;4.55;;;;;;;3.08;71.50;100859.34;5029867;28;20041;-24
2022/01/31 00:55:44;;;;;;;13.80;4.43;;;;;;;3.07;71.00;100865.41;5028266;28;20513;-24
2022/01/31 00:58:10;;;;;;;19.73;4.97;;;;;;;3.06;71.00;100851.47;5030899;28;20401;-25
2022/01/31 01:00:36;;;;;;;15.18;3.78;;;;;;;3.04;70.83;100824.50;5030234;28;20195;-24
2022/01/31 01:03:03;;;;;;;12.95;3.95;;;;;;;3.03;71.02;100801.03;5029510;28;20535;-24
2022/01/31 01:05:29;;;;;;;15.70;4.43;;;;;;;3.03;71.30;100806.25;5028877;28;20094;-25
2022/01/31 01:07:55;;;;;;;14.27;5.82;;;;;;;3.00;71.00;100790.53;5028480;28;20021;-24
2022/01/31 01:10:20;;;;;;;19.38;4.05;;;;;;;3.01;71.16;100794.88;5026507;28;20029;-23
2022/01/31 01:12:47;;;;;;;18.20;4.78;;;;;;;3.01;71.25;100787.06;5025786;28;20100;-24
2022/01/31 01:15:14;;;;;;;16.00;4.25;;;;;;;2.99;71.51;100779.22;5024731;28;20033;-24
2022/01/31 01:17:41;;;;;;;17.10;5.32;;;;;;;2.98;71.32;100780.06;5026803;28;20025;-24
2022/01/31 01:20:07;;;;;;;15.00;4.40;;;;;;;2.98;71.38;100769.63;5026201;28;20489;-21
2022/01/31 01:22:33;;;;;;;14.65;4.32;;;;;;;2.96;71.41;100773.91;5023724;28;20398;-24
2022/01/31 01:25:03;;;;;;;17.38;4.38;;;;;;;2.96;71.28;100779.13;5021581;28;20026;-24
2022/01/31 01:27:28;;;;;;;15.98;4.47;;;;;;;2.96;71.92;100766.09;5029017;28;20033;-25
2022/01/31 01:29:55;;;;;;;14.00;4.13;;;;;;;2.94;71.84;100760.00;5026590;28;20084;-23
2022/01/31 01:32:22;;;;;;;12.93;5.05;;;;;;;2.94;71.87;100745.22;5029031;28;20627;-25
2022/01/31 01:34:48;;;;;;;17.65;4.72;;;;;;;2.93;71.99;100737.34;5026261;28;20026;-25
2022/01/31 01:37:14;;;;;;;16.67;4.25;;;;;;;2.92;71.92;100726.06;5029223;28;20033;-24
2022/01/31 01:39:41;;;;;;;18.83;4.50;;;;;;;2.91;71.45;100715.63;5024473;28;20126;-24
2022/01/31 01:42:07;;;;;;;16.70;3.97;;;;;;;2.90;71.79;100713.88;5024044;28;20037;-24
2022/01/31 01:44:42;;;;;;;11.68;4.45;;;;;;;2.88;72.11;100697.31;5027510;28;20025;-23
2022/01/31 01:47:08;;;;;;;10.85;4.00;;;;;;;2.85;72.25;100687.69;5039930;28;20056;-24
2022/01/31 01:49:34;;;;;;;13.15;4.78;;;;;;;2.86;72.45;100670.34;5027283;28;20057;-24
2022/01/31 01:52:01;;;;;;;17.95;4.30;;;;;;;2.85;72.42;100664.25;5028902;28;20228;-24
2022/01/31 01:54:27;;;;;;;20.83;4.97;;;;;;;2.85;72.61;100656.44;5026260;28;20022;-24
2022/01/31 01:56:53;;;;;;;20.13;5.32;;;;;;;2.84;72.47;100659.00;5030101;28;20025;-24
2022/01/31 01:59:18;;;;;;;9.77;4.00;;;;;;;2.83;72.28;100658.13;5025423;28;20250;-24
2022/01/31 02:01:44;;;;;;;13.75;4.53;;;;;;;2.81;72.41;100645.06;5025276;28;20778;-25
2022/01/31 02:04:10;;;;;;;14.70;4.35;;;;;;;2.79;73.16;100641.56;5027991;28;20489;-24
2022/01/31 02:06:36;;;;;;;15.75;4.45;;;;;;;2.79;72.54;100636.34;5027584;28;20397;-24
2022/01/31 02:09:03;;;;;;;12.57;3.35;;;;;;;2.79;72.86;100635.44;5026456;28;20037;-24
2022/01/31 02:11:28;;;;;;;15.07;4.18;;;;;;;2.75;72.70;100618.88;5023480;28;20025;-25
2022/01/31 02:13:54;;;;;;;15.05;4.15;;;;;;;2.75;72.53;100618.00;5028042;28;20040;-24
2022/01/31 02:16:20;;;;;;;15.52;4.32;;;;;;;2.73;72.83;100606.69;5025547;28;20517;-25
2022/01/31 02:18:51;;;;;;;15.82;4.28;;;;;;;2.71;72.38;100598.81;5027108;28;20021;-24
2022/01/31 02:21:17;;;;;;;13.23;4.07;;;;;;;2.69;72.73;100588.38;5025400;28;20493;-24
2022/01/31 02:23:43;;;;;;;11.57;4.15;;;;;;;2.68;72.70;100577.91;5023740;28;20029;-25
2022/01/31 02:26:09;;;;;;;15.43;4.00;;;;;;;2.65;72.64;100583.94;5026498;28;20022;-24
2022/01/31 02:28:38;;;;;;;8.15;3.63;;;;;;;2.64;72.52;100571.75;5028207;28;20029;-24
2022/01/31 02:31:05;;;;;;;14.23;4.60;;;;;;;2.62;73.03;100563.03;5028265;28;20025;-25
2022/01/31 02:33:31;;;;;;;16.30;3.83;;;;;;;2.61;73.16;100553.47;5027192;28;20513;-24
2022/01/31 02:35:59;;;;;;;11.82;3.97;;;;;;;2.61;72.93;100548.28;5026571;28;20442;-24
2022/01/31 02:38:26;;;;;;;12.48;4.40;;;;;;;2.59;73.16;100533.44;5026201;28;20026;-25
2022/01/31 02:40:52;;;;;;;17.30;3.78;;;;;;;2.57;72.88;100533.44;5027851;28;20424;-24
2022/01/31 02:43:22;;;;;;;13.75;3.72;;;;;;;2.54;72.90;100521.19;5026138;28;20094;-24
2022/01/31 02:45:48;;;;;;;14.40;4.70;;;;;;;2.54;73.16;100530.75;5027845;28;20029;-25
2022/01/31 02:48:17;;;;;;;12.48;4.40;;;;;;;2.53;73.09;100521.16;5027044;28;20029;-24
2022/01/31 02:50:43;;;;;;;17.92;3.90;;;;;;;2.50;73.32;100502.91;5027652;28;20394;-24
2022/01/31 02:53:26;;;;;;;10.68;4.05;;;;;;;2.49;73.33;100493.31;5025789;28;20037;-24
2022/01/31 02:55:54;;;;;;;19.92;4.75;;;;;;;2.49;73.26;100472.47;5026635;28;20315;-24
2022/01/31 02:58:20;;;;;;;15.20;4.32;;;;;;;2.48;73.36;100455.09;5025108;28;20067;-24
2022/01/31 03:00:46;;;;;;;11.32;4.60;;;;;;;2.47;73.51;100445.53;5025893;28;20025;-24
2022/01/31 03:03:12;;;;;;;14.43;4.10;;;;;;;2.46;73.54;100430.78;5027634;28;20099;-24
2022/01/31 03:05:37;;;;;;;11.85;4.40;;;;;;;2.44;73.65;100425.53;5027551;28;20540;-22
2022/01/31 03:08:04;;;;;;;12.02;4.43;;;;;;;2.43;73.70;100431.56;5028096;28;20084;-24
2022/01/31 03:10:30;;;;;;;15.82;5.05;;;;;;;2.41;73.70;100428.94;5027559;28;20044;-25
2022/01/31 03:12:56;;;;;;;8.73;4.05;;;;;;;2.40;73.64;100424.59;5026073;28;20478;-25
2022/01/31 03:15:22;;;;;;;9.75;3.03;;;;;;;2.39;73.36;100404.63;5025563;28;20107;-25
2022/01/31 03:17:50;;;;;;;10.13;3.38;;;;;;;2.38;73.72;100399.38;5024500;28;20037;-24
2022/01/31 03:20:20;;;;;;;12.25;3.53;;;;;;;2.37;73.64;100367.25;5025466;28;20025;-24
2022/01/31 03:22:47;;;;;;;9.75;3.67;;;;;;;2.36;73.78;100355.09;5025137;28;20040;-24
2022/01/31 03:25:13;;;;;;;15.35;4.45;;;;;;;2.34;73.78;100343.78;5022863;28;20058;-24
2022/01/31 03:27:40;;;;;;;10.32;3.72;;;;;;;2.33;74.05;100360.22;5026618;28;20032;-24
2022/01/31 03:30:08;;;;;;;11.02;4.63;;;;;;;2.33;73.81;100354.16;5039682;28;20029;-24
2022/01/31 03:32:34;;;;;;;16.55;3.55;;;;;;;2.31;73.92;100343.72;5024951;28;20103;-24
2022/01/31 03:35:01;;;;;;;16.58;4.13;;;;;;;2.29;73.88;100330.69;5023580;28;20477;-25
2022/01/31 03:37:28;;;;;;;11.88;3.50;;;;;;;2.27;74.05;100323.69;5024514;28;20029;-24
2022/01/31 03:39:54;;;;;;;13.07;3.55;;;;;;;2.25;73.75;100315.84;5025078;28;20025;-24
2022/01/31 03:42:20;;;;;;;8.18;3.08;;;;;;;2.24;73.99;100279.38;5025462;28;20122;-23
2022/01/31 03:44:47;;;;;;;10.80;4.07;;;;;;;2.24;74.20;100284.59;5025072;28;20493;-24
2022/01/31 03:47:14;;;;;;;10.63;4.20;;;;;;;2.23;74.17;100282.84;5022761;28;20047;-25
2022/01/31 03:49:39;;;;;;;13.82;4.55;;;;;;;2.21;74.24;100281.94;5024889;28;20497;-24
2022/01/31 03:52:05;;;;;;;12.85;4.30;;;;;;;2.19;74.08;100274.09;5026700;28;20057;-24
2022/01/31 03:54:31;;;;;;;12.50;3.88;;;;;;;2.18;74.04;100257.63;5025686;28;20024;-23
2022/01/31 03:56:57;;;;;;;16.10;4.35;;;;;;;2.16;74.28;100251.50;5021603;28;20033;-24
2022/01/31 03:59:22;;;;;;;12.75;4.28;;;;;;;2.16;74.43;100248.88;5021579;28;20048;-24
2022/01/31 04:01:48;;;;;;;9.90;4.25;;;;;;;2.15;74.29;100236.72;5022833;28;20037;-24
2022/01/31 04:04:14;;;;;;;16.10;5.00;;;;;;;2.13;74.09;100212.41;5023218;28;20032;-25
2022/01/31 04:06:40;;;;;;;10.13;3.53;;;;;;;2.11;74.16;100211.50;5027486;28;20508;-24
2022/01/31 04:09:07;;;;;;;13.95;4.05;;;;;;;2.11;74.43;100208.91;5026116;28;20017;-24
2022/01/31 04:11:33;;;;;;;7.50;3.90;;;;;;;2.10;74.30;100225.34;5027756;28;20041;-24
2022/01/31 04:13:59;;;;;;;11.23;4.32;;;;;;;2.08;74.68;100224.47;5022882;28;20060;-24
2022/01/31 04:16:24;;;;;;;9.18;4.32;;;;;;;2.08;74.48;100203.66;5023786;28;20029;-24
2022/01/31 04:18:50;;;;;;;17.35;4.53;;;;;;;2.07;74.24;100196.69;5024406;28;20018;-24
2022/01/31 04:21:16;;;;;;;10.50;5.03;;;;;;;2.07;74.77;100191.50;5027222;28;20516;-24
2022/01/31 04:23:42;;;;;;;17.65;4.88;;;;;;;2.06;74.08;100184.50;5029315;28;20026;-24
2022/01/31 04:26:12;;;;;;;12.52;4.90;;;;;;;2.06;74.47;100176.72;5024392;28;20025;-24
2022/01/31 04:28:43;;;;;;;11.88;5.18;;;;;;;2.05;74.57;100161.97;5029167;28;20033;-24
2022/01/31 04:31:38;;;;;;;17.38;6.15;;;;;;;2.05;74.68;100146.34;5024205;28;20017;-24
2022/01/31 04:33:57;;;;;;;14.98;5.45;;;;;;;2.05;74.56;100138.53;5029542;28;20033;-24
2022/01/31 04:36:23;;;;;;;13.75;5.53;;;;;;;2.05;74.47;100134.22;5028850;28;20390;-24
2022/01/31 04:38:49;;;;;;;13.30;4.75;;;;;;;2.05;74.58;100120.34;5024280;28;20025;-24
2022/01/31 04:41:15;;;;;;;14.02;5.32;;;;;;;2.06;74.81;100109.06;5028335;28;20045;-23
2022/01/31 04:43:45;;;;;;;16.75;5.53;;;;;;;2.05;74.53;100099.53;5029191;28;20405;-24
2022/01/31 04:46:11;;;;;;;18.10;5.47;;;;;;;2.05;74.43;100083.91;5029262;28;20038;-24
2022/01/31 04:48:37;;;;;;;13.00;5.13;;;;;;;2.05;74.61;100057.91;5027262;28;20040;-24
2022/01/31 04:51:02;;;;;;;12.40;5.75;;;;;;;2.05;74.70;100058.78;5030660;28;20036;-24
2022/01/31 04:53:28;;;;;;;18.10;4.70;;;;;;;2.06;74.47;100051.84;5030826;28;20064;-24
2022/01/31 04:55:54;;;;;;;16.58;5.47;;;;;;;2.07;74.55;100055.31;5031714;28;20022;-24
2022/01/31 04:58:25;;;;;;;17.00;6.13;;;;;;;2.06;74.22;100064.84;5030369;28;20029;-24
2022/01/31 05:00:50;;;;;;;14.10;5.40;;;;;;;2.06;74.60;100051.84;5030847;28;20021;-24
2022/01/31 05:03:19;;;;;;;13.65;6.30;;;;;;;2.04;74.54;100037.94;5028007;28;20851;-24
2022/01/31 05:05:45;;;;;;;12.18;5.32;;;;;;;2.04;74.54;100019.75;5025782;28;20029;-24
2022/01/31 05:08:11;;;;;;;15.27;6.10;;;;;;;2.07;74.56;100009.38;5030788;28;20025;-24
2022/01/31 05:10:43;;;;;;;18.90;5.68;;;;;;;2.08;74.67;100011.13;5029686;28;20017;-21
2022/01/31 05:13:09;;;;;;;14.20;5.03;;;;;;;2.05;74.73;99985.94;5028128;28;20026;-24
2022/01/31 05:15:35;;;;;;;17.23;6.10;;;;;;;2.07;74.51;99996.38;5029208;28;20075;-24
2022/01/31 05:18:01;;;;;;;15.48;5.97;;;;;;;2.07;74.60;99983.38;5029228;28;20028;-25
2022/01/31 05:20:27;;;;;;;11.82;5.75;;;;;;;2.06;74.52;99979.00;5028802;28;20025;-24
2022/01/31 05:22:53;;;;;;;19.75;6.13;;;;;;;2.07;74.53;99972.97;5029893;28;20044;-24
2022/01/31 05:25:18;;;;;;;13.50;5.28;;;;;;;2.05;74.67;99948.63;5027939;28;20029;-24
2022/01/31 05:27:44;;;;;;;10.68;5.18;;;;;;;2.06;74.31;99950.38;5027045;28;20082;-24
2022/01/31 05:30:10;;;;;;;13.38;4.70;;;;;;;2.06;74.55;99945.19;5026331;28;20500;-24
2022/01/31 05:32:36;;;;;;;18.17;5.32;;;;;;;2.04;74.40;99942.56;5029513;28;20025;-24
2022/01/31 05:35:04;;;;;;;16.08;5.22;;;;;;;2.07;74.16;99935.66;5027389;28;20032;-25
2022/01/31 05:37:31;;;;;;;18.73;5.07;;;;;;;2.06;74.46;99934.78;5030611;28;20028;-24
2022/01/31 05:39:56;;;;;;;14.13;5.80;;;;;;;2.06;74.14;99929.56;5030141;28;20059;-24
2022/01/31 05:42:22;;;;;;;13.57;5.75;;;;;;;2.05;74.27;99922.63;5028618;28;20400;-24
2022/01/31 05:44:48;;;;;;;13.50;5.32;;;;;;;2.05;74.50;99918.31;5026183;28;20021;-24
2022/01/31 05:47:15;;;;;;;13.68;5.20;;;;;;;2.05;74.43;99909.63;5030047;28;20394;-24
2022/01/31 05:49:40;;;;;;;13.10;4.55;;;;;;;2.01;74.40;99892.22;5030538;28;20385;-23
2022/01/31 05:52:07;;;;;;;12.95;5.40;;;;;;;2.05;74.21;99891.41;5029729;28;20013;-24
2022/01/31 05:54:35;;;;;;;19.52;6.13;;;;;;;2.04;74.33;99889.66;5027854;28;20025;-23
2022/01/31 05:57:01;;;;;;;12.77;5.70;;;;;;;2.04;74.34;99868.84;5028096;28;20056;-25
2022/01/31 05:59:28;;;;;;;14.48;5.90;;;;;;;2.03;74.31;99867.09;5030070;28;20064;-24
2022/01/31 06:01:54;;;;;;;13.82;5.63;;;;;;;2.03;74.29;99844.56;5023932;28;20048;-24
2022/01/31 06:04:20;;;;;;;17.40;5.65;;;;;;;2.04;74.41;99840.25;5028102;28;20036;-25
2022/01/31 06:06:46;;;;;;;12.80;4.70;;;;;;;2.02;74.46;99827.22;5028564;28;20036;-25
2022/01/31 06:09:12;;;;;;;10.55;5.00;;;;;;;2.03;74.43;99809.88;5026294;28;20603;-24
2022/01/31 06:11:38;;;;;;;13.43;5.75;;;;;;;2.03;74.35;99800.34;5026277;28;20033;-24
2022/01/31 06:14:07;;;;;;;17.42;5.68;;;;;;;2.01;74.62;99790.78;5027999;28;20025;-24
2022/01/31 06:16:33;;;;;;;24.65;6.68;;;;;;;2.03;74.52;99789.06;5026597;28;20021;-24
2022/01/31 06:19:00;;;;;;;17.33;6.00;;;;;;;2.02;74.59;99805.53;5028019;28;20082;-24
2022/01/31 06:21:25;;;;;;;16.35;5.97;;;;;;;2.02;74.37;99797.72;5029016;28;20029;-24
2022/01/31 06:23:52;;;;;;;10.75;4.93;;;;;;;2.01;74.36;99790.78;5029899;28;20389;-24
2022/01/31 06:26:19;;;;;;;12.48;6.05;;;;;;;2.02;74.50;99790.81;5028099;28;20041;-24
2022/01/31 06:28:45;;;;;;;11.95;5.25;;;;;;;2.02;74.65;99783.00;5029407;28;20465;-25
2022/01/31 06:31:11;;;;;;;11.05;5.00;;;;;;;2.02;74.53;99772.59;5027113;28;20065;-24
2022/01/31 06:33:37;;;;;;;13.48;5.18;;;;;;;2.02;74.51;99787.31;5030033;28;20021;-23
2022/01/31 06:36:03;;;;;;;14.75;6.00;;;;;;;2.01;74.41;99788.19;5024944;28;20036;-25
2022/01/31 06:38:29;;;;;;;15.48;6.38;;;;;;;2.01;74.69;99798.59;5027140;28;20100;-24
2022/01/31 06:40:55;;;;;;;12.82;5.35;;;;;;;2.01;74.66;99793.38;5024159;28;20613;-24
2022/01/31 06:43:21;;;;;;;12.55;5.85;;;;;;;2.01;74.93;99785.59;5028054;28;20017;-24
2022/01/31 06:45:47;;;;;;;13.77;4.70;;;;;;;2.00;75.19;99778.63;5026097;28;20390;-24
2022/01/31 06:48:12;;;;;;;12.02;4.90;;;;;;;1.99;75.18;99774.28;5026935;28;20390;-25
2022/01/31 06:50:38;;;;;;;14.07;6.10;;;;;;;1.99;75.27;99779.47;5025365;28;20030;-23
2022/01/31 06:53:05;;;;;;;13.90;4.97;;;;;;;1.99;75.44;99782.06;5026826;28;20022;-24
2022/01/31 06:55:34;;;;;;;12.70;5.07;;;;;;;1.99;75.51;99775.16;5026441;28;20037;-24
2022/01/31 06:58:00;;;;;;;16.98;6.45;;;;;;;1.98;75.59;99770.81;5027902;28;20028;-24
2022/01/31 07:00:26;;;;;;;14.18;6.78;;;;;;;1.98;75.67;99765.63;5027335;28;20025;-23
2022/01/31 07:02:52;;;;;;;12.52;4.97;;;;;;;1.96;75.84;99759.50;5027612;28;20041;-23
2022/01/31 07:05:18;;;;;;;12.35;5.85;;;;;;;1.96;75.76;99771.66;5024853;28;20179;-23
2022/01/31 07:07:44;;;;;;;13.98;5.10;;;;;;;1.94;75.89;99756.03;5023352;28;20431;-24
2022/01/31 07:10:11;;;;;;;12.93;5.95;;;;;;;1.94;76.00;99753.44;5026758;28;20056;-24
2022/01/31 07:12:39;;;;;;;16.13;5.40;;;;;;;1.92;76.20;99743.00;5026863;28;20030;-23
2022/01/31 07:15:10;;;;;;;12.10;5.30;;;;;;;1.91;76.43;99738.63;5023187;28;20023;-24
2022/01/31 07:17:36;;;;;;;14.55;5.78;;;;;;;1.90;76.18;99731.69;5028662;28;20025;-23
2022/01/31 07:20:10;;;;;;;13.13;5.25;;;;;;;1.90;76.31;99730.84;5023620;28;20025;-25
2022/01/31 07:22:38;;;;;;;13.55;4.95;;;;;;;1.87;76.50;99726.47;5024020;28;20108;-23
2022/01/31 07:25:19;;;;;;;14.50;6.25;;;;;;;1.87;76.43;99720.41;5022146;28;20509;-24
2022/01/31 07:27:45;;;;;;;11.10;4.82;;;;;;;1.86;76.44;99719.53;5023408;28;20092;-22
2022/01/31 07:30:11;;;;;;;13.23;5.80;;;;;;;1.85;76.42;99711.69;5025706;28;20033;-24
2022/01/31 07:32:41;;;;;;;13.48;4.75;;;;;;;1.84;76.24;99707.38;5028525;28;20037;-23
2022/01/31 07:35:10;;;;;;;10.40;5.18;;;;;;;1.83;76.30;99708.22;5027215;28;20028;-24
2022/01/31 07:37:36;;;;;;;9.68;5.03;;;;;;;1.83;76.40;99695.22;5027373;28;20099;-24
2022/01/31 07:40:06;;;;;;;9.80;5.35;;;;;;;1.83;76.54;99696.09;5024510;28;20048;-23
2022/01/31 07:42:31;;;;;;;14.23;5.00;;;;;;;1.83;76.72;99688.28;5022845;28;20029;-24
2022/01/31 07:44:57;;;;;;;14.63;5.50;;;;;;;1.83;76.72;99679.63;5025384;28;20034;-23
2022/01/31 07:47:23;;;;;;;12.60;4.95;;;;;;;1.80;76.71;99667.44;5024043;28;20080;-23
2022/01/31 07:49:51;;;;;;;8.18;4.30;;;;;;;1.82;76.64;99675.25;5025123;28;20108;-23
2022/01/31 07:52:17;;;;;;;17.08;5.50;;;;;;;1.79;76.23;99660.50;5028072;28;20362;-23
2022/01/31 07:54:44;;;;;;;9.23;4.53;;;;;;;1.79;76.68;99650.09;5027400;28;20024;-24
2022/01/31 07:57:10;;;;;;;16.63;4.85;;;;;;;1.80;76.72;99646.63;5032775;28;20025;-24
2022/01/31 07:59:36;;;;;;;9.57;4.70;;;;;;;1.78;76.78;99640.56;5027753;28;20962;-24
2022/01/31 08:02:02;;;;;;;8.43;4.80;;;;;;;1.80;76.84;99636.22;5030868;28;20163;-24
2022/01/31 08:04:27;;;;;;;9.38;4.32;;;;;;;1.77;76.73;99633.63;5031926;28;20029;-23
2022/01/31 08:06:53;;;;;;;8.27;4.65;;;;;;;1.77;76.83;99620.63;5031193;28;20063;-23
2022/01/31 08:09:19;;;;;;;5.97;4.45;;;;;;;1.78;76.70;99624.97;5029261;28;20434;-23
2022/01/31 08:11:45;;;;;;;10.38;4.95;;;;;;;1.77;76.76;99620.63;5027024;28;20025;-23
2022/01/31 08:14:13;;;;;;;11.85;5.38;;;;;;;1.77;76.97;99615.44;5028956;28;20298;-23
2022/01/31 08:16:39;;;;;;;10.05;4.40;;;;;;;1.76;76.60;99619.75;5029058;28;20063;-23
2022/01/31 08:19:08;;;;;;;9.52;5.25;;;;;;;1.75;76.94;99612.81;5031988;28;20018;-24
2022/01/31 08:21:35;;;;;;;7.20;4.40;;;;;;;1.74;76.94;99600.66;5030863;28;20018;-23
2022/01/31 08:24:01;;;;;;;7.82;4.03;;;;;;;1.75;76.83;99601.53;5031593;28;20040;-24
2022/01/31 08:26:27;;;;;;;11.73;4.55;;;;;;;1.75;76.95;99601.53;5030762;28;20029;-23
2022/01/31 08:28:59;;;;;;;7.65;4.35;;;;;;;1.74;77.02;99589.41;5031995;28;20049;-24
2022/01/31 08:31:32;;;;;;;11.07;4.50;;;;;;;1.73;76.90;99582.47;5026110;28;20047;-24
2022/01/31 08:36:26;;;;;;;8.48;4.43;;;;;;;1.74;77.21;99579.00;5027319;28;20467;-23
2022/01/31 08:38:52;;;;;;;9.90;5.45;;;;;;;1.72;77.26;99565.97;5030196;28;20432;-24
2022/01/31 08:41:19;;;;;;;8.30;4.72;;;;;;;1.72;77.26;99559.91;5031569;28;20044;-23
2022/01/31 08:43:45;;;;;;;8.82;4.65;;;;;;;1.71;77.20;99558.16;5030304;28;20067;-24
2022/01/31 08:46:12;;;;;;;10.77;4.45;;;;;;;1.72;77.17;99554.69;5013588;28;20030;-24
2022/01/31 08:48:38;;;;;;;6.13;4.32;;;;;;;1.72;77.27;99552.09;5029299;28;20117;-23
2022/01/31 08:51:07;;;;;;;9.43;5.80;;;;;;;1.72;77.15;99549.50;5030524;28;20462;-23
2022/01/31 08:53:33;;;;;;;9.98;4.78;;;;;;;1.72;77.21;99544.31;5031095;28;20405;-23
2022/01/31 08:56:06;;;;;;;6.97;5.00;;;;;;;1.71;77.22;99548.66;5031635;28;20385;-23
2022/01/31 08:58:33;;;;;;;13.43;4.93;;;;;;;1.70;77.39;99541.69;5029982;28;20524;-24
2022/01/31 09:01:04;;;;;;;10.65;6.05;;;;;;;1.70;77.43;99531.28;5029993;28;20035;-23
2022/01/31 09:06:10;;;;;;;10.68;4.22;;;;;;;1.71;77.29;99529.56;5025367;28;20033;-23
2022/01/31 09:08:37;;;;;;;7.97;4.60;;;;;;;1.69;77.53;99516.56;5025548;28;20029;-23
2022/01/31 09:11:04;;;;;;;8.77;4.65;;;;;;;1.71;77.56;99521.78;5030635;28;20276;-23
2022/01/31 09:13:30;;;;;;;8.40;4.60;;;;;;;1.70;77.41;99520.03;5030756;28;20377;-23
2022/01/31 09:15:56;;;;;;;7.68;4.65;;;;;;;1.66;77.50;99513.91;5030443;28;20064;-23
2022/01/31 09:18:22;;;;;;;7.70;4.90;;;;;;;1.70;77.63;99509.63;5028989;28;20064;-24
2022/01/31 09:20:48;;;;;;;5.78;4.35;;;;;;;1.71;77.43;99516.56;5030722;28;20028;-23
2022/01/31 09:23:13;;;;;;;9.07;5.18;;;;;;;1.71;77.43;99512.25;5030435;28;20041;-24
2022/01/31 09:25:45;;;;;;;9.32;5.00;;;;;;;1.70;76.92;99505.28;5026881;28;20037;-23
2022/01/31 09:28:10;;;;;;;;;;;;;;;1.71;77.44;99508.78;5031439;28;20441;-23
2022/01/31 09:30:38;;;;;;;9.73;5.10;;;;;;;1.70;77.27;99499.25;5028877;28;19920;-23
2022/01/31 09:33:03;;;;;;;10.85;4.97;;;;;;;1.69;77.44;99492.28;5028696;28;20033;-24
2022/01/31 09:35:29;;;;;;;9.35;5.22;;;;;;;1.68;77.40;99496.63;5027104;28;20072;-23
2022/01/31 09:37:55;;;;;;;10.48;5.15;;;;;;;1.66;77.77;99491.41;5032801;28;20025;-23
2022/01/31 09:40:23;;;;;;;7.07;4.70;;;;;;;1.68;77.43;99496.63;5033229;28;20108;-23
2022/01/31 09:48:32;;;;;;;7.13;4.68;;;;;;;1.67;77.35;99494.88;5031251;28;20033;-23
2022/01/31 09:51:05;;;;;;;5.97;4.32;;;;;;;1.66;76.95;99490.53;5030166;28;20029;-23
2022/01/31 09:53:32;;;;;;;6.35;4.25;;;;;;;1.65;77.40;99487.06;5030425;28;20489;-23
2022/01/31 09:55:58;;;;;;;8.70;5.00;;;;;;;1.66;77.03;99475.81;5030082;28;20021;-24
2022/01/31 09:58:26;;;;;;;7.47;5.00;;;;;;;1.62;76.93;99462.78;5029597;28;20759;-24
2022/01/31 10:01:04;;;;;;;7.22;4.20;;;;;;;1.67;76.93;99479.28;5026417;28;20044;-23
2022/01/31 10:03:30;;;;;;;6.82;4.47;;;;;;;1.67;77.23;99474.09;5024441;28;20493;-23
2022/01/31 10:05:55;;;;;;;5.32;4.30;;;;;;;1.67;77.16;99485.34;5029394;28;20037;-23
2022/01/31 10:08:21;;;;;;;5.55;4.05;;;;;;;1.67;77.28;99476.69;5021344;28;20029;-24
2022/01/31 10:10:49;;;;;;;5.72;4.68;;;;;;;1.68;77.18;99478.44;5027559;28;20021;-24
2022/01/31 10:16:32;;;;;;;6.53;4.25;;;;;;;1.69;77.52;99466.28;5024422;28;20071;-23
2022/01/31 10:19:02;;;;;;;6.65;4.63;;;;;;;1.70;77.06;99462.84;5023185;28;20223;-23
2022/01/31 10:21:28;;;;;;;4.78;4.35;;;;;;;1.69;77.11;99458.47;5026838;28;20037;-24
2022/01/31 10:23:54;;;;;;;5.25;3.58;;;;;;;1.68;77.40;99452.44;5024171;28;20508;-23
2022/01/31 10:26:35;;;;;;;7.97;4.50;;;;;;;1.70;77.48;99455.91;5027884;28;20065;-24
2022/01/31 10:29:12;;;;;;;4.93;4.43;;;;;;;1.72;77.48;99468.91;5025514;28;20402;-24
2022/01/31 10:32:02;;;;;;;6.25;4.93;;;;;;;1.73;77.22;99462.88;5025088;28;20056;-23
2022/01/31 10:34:31;;;;;;;5.10;3.88;;;;;;;1.73;77.53;99462.88;5024100;28;20036;-23
2022/01/31 10:37:09;;;;;;;5.78;3.78;;;;;;;1.71;77.50;99451.56;5026894;28;20033;-23
2022/01/31 10:53:52;;;;;;;4.72;4.13;;;;;;;1.81;77.39;99466.41;5027148;28;20037;-23
2022/01/31 10:56:18;;;;;;;4.40;4.00;;;;;;;1.82;77.44;99467.25;5026388;28;20560;-22
2022/01/31 10:59:02;;;;;;;5.20;3.85;;;;;;;1.83;77.23;99467.25;5026410;28;20112;-24
2022/01/31 11:01:28;;;;;;;5.30;3.90;;;;;;;1.80;77.50;99467.22;5023974;28;20033;-23
2022/01/31 11:03:54;;;;;;;4.30;3.67;;;;;;;1.83;77.82;99467.25;5027294;28;20409;-23
2022/01/31 11:06:23;;;;;;;4.45;3.97;;;;;;;1.84;77.17;99466.41;5020131;28;20502;-23
2022/01/31 11:08:49;;;;;;;4.93;4.43;;;;;;;1.85;77.18;99470.75;5022935;28;20041;-24
2022/01/31 11:11:15;;;;;;;4.55;4.00;;;;;;;1.85;77.46;99468.16;5026005;28;20036;-23
2022/01/31 11:13:41;;;;;;;4.65;3.90;;;;;;;1.85;77.42;99465.56;5024446;28;20029;-24
2022/01/31 11:16:08;;;;;;;4.78;4.15;;;;;;;1.86;77.20;99458.59;5021114;28;20159;-23
2022/01/31 11:18:35;;;;;;;4.13;3.72;;;;;;;1.87;77.40;99462.97;5020857;28;20291;-24
2022/01/31 11:21:06;;;;;;;4.30;3.90;;;;;;;1.86;77.52;99456.00;5022480;28;20033;-23
2022/01/31 11:23:38;;;;;;;6.00;3.85;;;;;;;1.87;77.31;99450.81;5038048;28;20072;-23
2022/01/31 11:26:07;;;;;;;4.45;3.92;;;;;;;1.88;77.15;99460.38;5023763;28;20025;-23
2022/01/31 11:28:36;;;;;;;4.85;4.20;;;;;;;1.89;77.22;99464.72;5023735;28;20344;-24
2022/01/31 11:31:03;;;;;;;4.00;3.70;;;;;;;1.90;77.26;99460.41;5026159;28;20033;-23
2022/01/31 11:33:30;;;;;;;4.35;3.85;;;;;;;1.89;77.41;99472.50;5023814;28;20509;-23
2022/01/31 11:35:56;;;;;;;4.80;3.97;;;;;;;1.91;77.61;99472.53;5023529;28;20504;-24
2022/01/31 11:38:22;;;;;;;4.22;3.85;;;;;;;1.90;77.50;99466.44;5023145;28;20032;-23
2022/01/31 11:40:49;;;;;;;4.28;3.90;;;;;;;1.92;77.68;99471.66;5021719;28;20029;-23
2022/01/31 11:43:16;;;;;;;4.20;3.80;;;;;;;1.91;77.81;99473.38;5021791;28;20029;-23
2022/01/31 11:45:45;;;;;;;5.40;4.50;;;;;;;1.94;78.62;99474.28;5025785;28;20033;-23
2022/01/31 11:48:24;;;;;;;6.45;4.65;;;;;;;1.95;77.99;99478.59;5024235;28;20029;-22
2022/01/31 11:50:53;;;;;;;4.20;3.80;;;;;;;1.96;78.15;99480.38;5025619;28;20025;-23
2022/01/31 11:53:35;;;;;;;4.47;4.07;;;;;;;1.94;78.35;99469.94;5021700;28;20467;-23
2022/01/31 11:56:03;;;;;;;7.00;4.55;;;;;;;1.97;79.70;99469.94;5024384;28;20026;-25
2022/01/31 11:58:31;;;;;;;5.25;4.40;;;;;;;1.99;80.17;99459.56;5022944;28;20448;-23
2022/01/31 12:00:59;;;;;;;7.13;4.80;;;;;;;2.00;79.69;99456.13;5026155;28;20397;-23